Terminal Aerodrome Forecast
Issued by NWS

Home | Current Version | Previous Version | Text Only | Print | Product List | Glossary On
Versions: 1 2 3 4 5 6 7 8 9 10 11 12 13 14 15
128
FTUS42 TJSJ 180752 CCA
TAFIST
TAF COR
TIST 180752Z 1806/1906 06009KT P6SM VCSH FEW025 SCT040 SCT080
      TEMPO 1808/1812 VRB12KT 5SM SHRA BKN025 BKN040
     FM181400 08014G20KT P6SM SCT030 SCT080
     FM182300 07011KT P6SM VCSH SCT025 SCT050=

USA.gov is the U.S. government's official web portal to all federal, state and local government web resources and services.